Time;durP1;ratioP1;P1;durP2;ratioP2;P2;SDS_P1;SDS_P2;PMS_P1;PMS_P2;Temp;Humidity;BMP_temperature;BMP_pressure;BME280_temperature;BME280_humidity;BME280_pressure;Samples;Min_cycle;Max_cycle;Signal;HPM_P1;HPM_P2
2022/07/23 11:00:23;;;;;;;4.18;3.78;;;26.90;97.50;;;;;;5834074;22;87887;-64
2022/07/23 11:03:32;;;;;;;7.05;3.80;;;26.90;97.60;;;;;;6201315;28;89124;-63
2022/07/23 11:07:09;;;;;;;4.55;3.78;;;26.90;97.70;;;;;;6202860;28;89548;-64
2022/07/23 11:10:35;;;;;;;5.13;3.70;;;26.90;97.80;;;;;;6200137;28;90034;-64
2022/07/23 11:13:47;;;;;;;4.93;3.83;;;26.90;98.00;;;;;;6209079;28;91024;-63
2022/07/23 11:16:56;;;;;;;5.10;3.83;;;27.10;98.10;;;;;;6111488;28;87987;-64
2022/07/23 11:20:17;;;;;;;4.18;3.78;;;26.90;98.00;;;;;;6105278;28;88148;-64
2022/07/23 11:23:19;;;;;;;4.97;3.80;;;27.00;98.00;;;;;;6097772;28;88298;-64
2022/07/23 11:26:44;;;;;;;4.88;3.60;;;26.90;97.90;;;;;;6105250;28;88996;-64
2022/07/23 11:29:48;;;;;;;7.60;3.67;;;26.90;97.90;;;;;;6095258;28;89112;-64
2022/07/23 11:32:52;;;;;;;4.82;3.53;;;26.90;97.90;;;;;;6111899;28;88445;-64
2022/07/23 11:36:03;;;;;;;5.10;4.07;;;26.90;97.90;;;;;;6111105;28;89174;-64
2022/07/23 11:39:06;;;;;;;6.32;3.95;;;27.00;97.80;;;;;;6111968;28;87987;-64
2022/07/23 11:42:08;;;;;;;5.03;3.72;;;27.00;97.80;;;;;;6111193;28;90120;-64
2022/07/23 11:45:10;;;;;;;4.65;3.50;;;26.90;97.80;;;;;;6108123;28;87969;-64
2022/07/23 11:48:20;;;;;;;4.32;3.53;;;26.90;97.70;;;;;;6102258;28;89083;-64
2022/07/23 11:51:26;;;;;;;5.25;3.55;;;26.90;97.90;;;;;;6110718;28;87816;-65
2022/07/23 11:54:28;;;;;;;4.85;3.65;;;26.90;98.10;;;;;;6100573;28;89065;-64
2022/07/23 11:57:32;;;;;;;6.15;3.60;;;27.00;98.00;;;;;;6111221;28;89147;-64
2022/07/23 12:00:34;;;;;;;4.07;3.30;;;27.00;98.00;;;;;;6111255;28;89015;-64
2022/07/23 12:03:48;;;;;;;3.97;3.28;;;27.00;98.00;;;;;;6111810;28;88384;-64
2022/07/23 12:06:50;;;;;;;5.72;3.70;;;26.90;98.00;;;;;;6103686;28;89105;-64
2022/07/23 12:09:53;;;;;;;4.57;3.78;;;27.00;98.00;;;;;;6097585;28;89059;-65
2022/07/23 12:12:57;;;;;;;4.28;3.55;;;27.00;98.00;;;;;;6105130;28;89321;-64
2022/07/23 12:15:59;;;;;;;3.97;3.38;;;27.00;98.00;;;;;;6168287;28;89115;-64
2022/07/23 12:19:02;;;;;;;4.05;3.65;;;27.00;98.00;;;;;;6178880;28;89144;-64
2022/07/23 12:22:05;;;;;;;6.07;3.58;;;27.00;97.90;;;;;;6172070;28;89075;-65
2022/07/23 12:25:10;;;;;;;4.25;3.40;;;26.90;97.90;;;;;;6172262;28;89023;-65
2022/07/23 12:28:14;;;;;;;3.75;3.45;;;27.00;97.90;;;;;;6181241;28;88972;-64
2022/07/23 12:31:16;;;;;;;3.72;3.33;;;26.90;97.90;;;;;;6169433;28;89103;-64
2022/07/23 12:34:19;;;;;;;4.00;3.60;;;27.00;97.90;;;;;;6165989;28;88683;-64
2022/07/23 12:37:32;;;;;;;5.60;3.35;;;27.00;98.00;;;;;;6159279;28;89054;-64
2022/07/23 12:40:37;;;;;;;3.67;3.17;;;27.00;98.00;;;;;;6159606;28;89072;-64
2022/07/23 12:43:41;;;;;;;3.63;3.22;;;27.00;98.10;;;;;;6164451;28;90034;-64
2022/07/23 12:46:43;;;;;;;3.70;3.22;;;26.90;98.10;;;;;;6168147;28;89096;-64
2022/07/23 12:49:47;;;;;;;3.80;3.40;;;27.00;98.10;;;;;;6161810;28;89075;-64
2022/07/23 12:52:49;;;;;;;3.70;3.40;;;27.00;98.10;;;;;;6172017;28;89115;-64
2022/07/23 12:55:58;;;;;;;3.70;3.38;;;27.00;98.20;;;;;;6172206;28;89070;-65
2022/07/23 12:59:09;;;;;;;3.38;3.08;;;27.00;98.10;;;;;;6170687;28;89093;-64
2022/07/23 13:02:11;;;;;;;3.63;3.33;;;27.00;98.10;;;;;;6163433;28;89126;-64
2022/07/23 13:05:14;;;;;;;3.42;3.10;;;27.00;98.10;;;;;;6166192;28;88375;-64
2022/07/23 13:08:16;;;;;;;4.47;2.90;;;27.00;98.00;;;;;;6170317;28;89488;-64
2022/07/23 13:11:18;;;;;;;3.40;3.10;;;27.00;98.00;;;;;;6171254;28;89337;-64
2022/07/23 13:14:22;;;;;;;4.18;3.30;;;27.00;98.00;;;;;;6177473;28;91404;-64
2022/07/23 13:17:24;;;;;;;4.03;3.63;;;27.00;98.40;;;;;;6208306;28;89040;-64
2022/07/23 13:20:27;;;;;;;3.60;3.30;;;27.00;98.00;;;;;;6220466;28;89151;-65
2022/07/23 13:23:30;;;;;;;5.45;3.70;;;27.00;98.00;;;;;;6207975;28;89094;-64
2022/07/23 13:26:31;;;;;;;3.90;3.50;;;27.00;98.10;;;;;;6229940;28;89048;-64
2022/07/23 13:29:33;;;;;;;3.63;3.33;;;27.00;98.20;;;;;;6209039;28;89164;-64
2022/07/23 13:32:35;;;;;;;4.63;3.58;;;27.00;98.20;;;;;;6213314;28;89145;-65
2022/07/23 13:35:39;;;;;;;3.63;3.30;;;27.00;98.20;;;;;;6224392;28;88512;-64
2022/07/23 13:38:41;;;;;;;3.70;3.40;;;27.00;98.20;;;;;;6221742;28;89174;-64
2022/07/23 13:41:43;;;;;;;4.38;3.50;;;27.00;98.20;;;;;;6230060;28;89095;-64
2022/07/23 13:44:45;;;;;;;4.00;3.60;;;27.00;98.20;;;;;;6230435;28;90048;-64
2022/07/23 13:47:47;;;;;;;4.00;3.38;;;27.00;98.10;;;;;;6217824;28;89369;-65
2022/07/23 13:50:51;;;;;;;3.58;3.28;;;27.00;98.10;;;;;;6217611;28;88439;-64
2022/07/23 13:53:54;;;;;;;3.65;3.30;;;27.00;98.10;;;;;;6223635;28;89081;-64
2022/07/23 13:56:57;;;;;;;3.55;3.20;;;27.00;98.10;;;;;;6211662;28;89188;-64
2022/07/23 13:59:59;;;;;;;3.65;3.35;;;27.00;98.00;;;;;;6220689;28;89111;-64
2022/07/23 14:03:01;;;;;;;4.45;3.40;;;27.00;98.00;;;;;;6228742;28;89123;-64
2022/07/23 14:06:06;;;;;;;3.80;3.50;;;27.00;98.00;;;;;;6219357;28;88353;-64
2022/07/23 14:09:08;;;;;;;3.80;3.50;;;27.00;98.10;;;;;;6211893;28;89204;-64
2022/07/23 14:12:10;;;;;;;3.60;3.30;;;27.00;98.20;;;;;;6218822;28;89172;-64
2022/07/23 14:15:12;;;;;;;3.75;3.45;;;27.00;98.20;;;;;;6181990;28;90091;-64
2022/07/23 14:18:14;;;;;;;3.88;3.53;;;27.00;98.20;;;;;;6168652;28;89080;-64
2022/07/23 14:21:18;;;;;;;3.88;3.53;;;27.00;98.20;;;;;;6172083;28;89078;-64
2022/07/23 14:24:20;;;;;;;3.45;3.15;;;27.00;98.20;;;;;;6158415;28;89114;-64
2022/07/23 14:27:22;;;;;;;4.43;3.28;;;27.00;98.20;;;;;;6172300;28;89261;-64
2022/07/23 14:30:24;;;;;;;3.63;3.33;;;27.00;98.20;;;;;;6167137;28;87805;-64
2022/07/23 14:33:26;;;;;;;3.65;3.33;;;27.10;98.20;;;;;;6169279;28;89029;-64
2022/07/23 14:36:30;;;;;;;3.63;3.33;;;27.00;98.10;;;;;;6170923;28;88409;-64
2022/07/23 14:39:32;;;;;;;3.58;3.28;;;27.00;98.10;;;;;;6169662;28;89114;-64
2022/07/23 14:42:34;;;;;;;3.97;3.58;;;27.00;98.10;;;;;;6161553;28;89151;-64
2022/07/23 14:45:36;;;;;;;3.55;3.25;;;27.10;98.10;;;;;;6173561;28;90073;-64
2022/07/23 14:48:38;;;;;;;3.80;3.50;;;27.00;98.10;;;;;;6161364;28;89088;-64
2022/07/23 14:51:42;;;;;;;4.18;3.78;;;27.00;98.00;;;;;;6172670;28;88124;-64
2022/07/23 14:54:44;;;;;;;4.13;3.78;;;27.00;98.10;;;;;;6176209;28;88056;-65
2022/07/23 14:57:46;;;;;;;4.38;3.60;;;27.00;98.10;;;;;;6162354;28;89312;-64
2022/07/23 15:00:48;;;;;;;3.70;3.40;;;27.00;98.20;;;;;;6161397;28;89325;-64
2022/07/23 15:03:50;;;;;;;3.35;3.05;;;27.00;98.10;;;;;;6160974;28;89461;-64
2022/07/23 15:06:53;;;;;;;3.63;3.33;;;27.00;98.10;;;;;;6161572;28;87183;-64
2022/07/23 15:09:55;;;;;;;3.70;3.40;;;27.00;98.10;;;;;;6175408;28;88038;-64
2022/07/23 15:12:57;;;;;;;4.43;3.65;;;27.00;98.10;;;;;;6161423;28;87593;-65
2022/07/23 15:15:59;;;;;;;3.65;3.35;;;27.00;98.10;;;;;;6194576;28;89411;-64
2022/07/23 15:19:01;;;;;;;3.85;3.55;;;27.00;98.10;;;;;;6197996;28;88240;-64
2022/07/23 15:22:05;;;;;;;4.00;3.67;;;27.00;98.00;;;;;;6185253;28;89506;-64
2022/07/23 15:25:08;;;;;;;3.90;3.60;;;27.00;98.00;;;;;;6195070;28;89187;-64
2022/07/23 15:28:10;;;;;;;4.15;3.50;;;27.00;98.10;;;;;;6208718;28;89413;-64
2022/07/23 15:31:12;;;;;;;3.60;3.30;;;27.00;98.00;;;;;;6201536;28;88257;-64
2022/07/23 15:34:14;;;;;;;3.85;3.50;;;27.00;98.00;;;;;;6203652;28;89167;-64
2022/07/23 15:37:17;;;;;;;3.80;3.50;;;27.00;98.00;;;;;;6203725;28;88274;-64
2022/07/23 15:40:19;;;;;;;4.22;3.83;;;27.00;98.00;;;;;;6184249;28;89056;-64
2022/07/23 15:43:22;;;;;;;4.00;3.60;;;27.00;98.00;;;;;;6184855;28;89098;-64
2022/07/23 15:46:24;;;;;;;3.90;3.60;;;27.00;98.00;;;;;;6197625;28;89974;-64
2022/07/23 15:49:26;;;;;;;3.88;3.58;;;27.00;98.10;;;;;;6198058;28;87995;-64
2022/07/23 15:52:29;;;;;;;3.70;3.40;;;27.00;98.10;;;;;;6203344;28;88948;-64
2022/07/23 15:55:31;;;;;;;3.92;3.63;;;27.00;98.10;;;;;;6189841;28;89380;-65
2022/07/23 15:58:33;;;;;;;3.97;3.67;;;27.00;98.10;;;;;;6201194;28;89073;-64
2022/07/23 16:01:35;;;;;;;4.13;3.72;;;27.00;98.10;;;;;;6208106;28;89405;-64
2022/07/23 16:04:37;;;;;;;4.10;3.80;;;27.00;98.10;;;;;;6194902;28;89015;-64
2022/07/23 16:07:40;;;;;;;5.05;3.80;;;27.00;98.00;;;;;;6188840;28;88622;-64
2022/07/23 16:10:43;;;;;;;4.28;3.92;;;27.00;98.00;;;;;;6209305;28;88068;-64
2022/07/23 16:13:45;;;;;;;4.25;3.90;;;27.00;98.10;;;;;;6196996;28;89022;-65
2022/07/23 16:16:47;;;;;;;3.83;3.53;;;27.00;98.10;;;;;;6204565;28;89971;-64
2022/07/23 16:19:49;;;;;;;3.83;3.53;;;27.00;98.00;;;;;;6207394;28;89110;-64
2022/07/23 16:22:53;;;;;;;3.88;3.58;;;27.00;98.10;;;;;;6206463;28;89101;-64
2022/07/23 16:25:55;;;;;;;3.70;3.40;;;27.00;98.10;;;;;;6203034;28;89121;-65
2022/07/23 16:28:57;;;;;;;3.80;3.50;;;27.00;98.10;;;;;;6195993;28;89427;-64
2022/07/23 16:31:59;;;;;;;3.92;3.63;;;27.00;98.10;;;;;;6197629;28;89058;-64
2022/07/23 16:35:01;;;;;;;3.45;3.15;;;27.00;98.10;;;;;;6194459;28;89027;-64
2022/07/23 16:38:04;;;;;;;3.92;3.50;;;27.00;98.10;;;;;;6195906;28;87479;-64
2022/07/23 16:41:07;;;;;;;3.70;3.40;;;27.00;98.10;;;;;;6193949;28;89026;-64
2022/07/23 16:44:09;;;;;;;3.90;3.60;;;27.00;98.10;;;;;;6207067;28;87963;-64
2022/07/23 16:47:11;;;;;;;4.00;3.70;;;27.00;98.10;;;;;;6206315;28;90019;-64
2022/07/23 16:50:14;;;;;;;3.95;3.65;;;27.00;98.10;;;;;;6194604;28;89113;-65
2022/07/23 16:53:17;;;;;;;3.95;3.65;;;27.00;98.10;;;;;;6189745;28;89051;-64
2022/07/23 16:56:19;;;;;;;3.97;3.58;;;27.10;98.10;;;;;;6186483;28;89140;-64
2022/07/23 16:59:21;;;;;;;3.63;3.33;;;27.00;98.10;;;;;;6192274;28;89431;-64
2022/07/23 17:02:23;;;;;;;4.15;3.85;;;27.00;98.10;;;;;;6195155;28;89345;-64
2022/07/23 17:05:26;;;;;;;3.92;3.63;;;27.00;98.10;;;;;;6190226;28;89053;-64
2022/07/23 17:08:29;;;;;;;3.53;3.33;;;27.00;98.10;;;;;;6204389;28;88333;-64
2022/07/23 17:11:31;;;;;;;4.20;3.80;;;27.00;98.00;;;;;;6205644;28;89074;-64
2022/07/23 17:14:33;;;;;;;3.80;3.50;;;27.00;98.00;;;;;;6204286;28;88802;-64
2022/07/23 17:17:35;;;;;;;3.70;3.40;;;27.00;98.10;;;;;;6204271;28;90044;-64
2022/07/23 17:20:37;;;;;;;4.15;3.85;;;27.00;98.10;;;;;;6204131;28;89265;-63
2022/07/23 17:23:41;;;;;;;4.07;3.70;;;27.00;98.10;;;;;;6183284;28;89091;-64
2022/07/23 17:26:43;;;;;;;4.00;3.70;;;27.00;98.20;;;;;;6183362;28;89024;-64
2022/07/23 17:29:45;;;;;;;3.83;3.53;;;27.00;98.20;;;;;;6190760;28;89067;-64
2022/07/23 17:32:47;;;;;;;3.75;3.45;;;27.00;98.10;;;;;;6204727;28;87992;-64
2022/07/23 17:35:52;;;;;;;3.75;3.45;;;27.00;98.10;;;;;;6204632;28;89305;-64
2022/07/23 17:38:55;;;;;;;4.00;3.70;;;27.00;98.10;;;;;;6206353;28;88342;-64
2022/07/23 17:41:57;;;;;;;3.80;3.50;;;27.00;98.10;;;;;;6205527;28;87968;-64
2022/07/23 17:45:00;;;;;;;4.35;3.90;;;27.00;98.10;;;;;;6206606;28;87993;-64
2022/07/23 17:48:02;;;;;;;4.40;4.10;;;27.00;98.10;;;;;;6193034;28;90088;-64
2022/07/23 17:51:06;;;;;;;4.13;3.83;;;27.00;98.10;;;;;;6193880;28;88727;-64
2022/07/23 17:54:10;;;;;;;4.13;3.83;;;27.00;98.10;;;;;;6194638;28;89050;-64
2022/07/23 17:57:12;;;;;;;4.22;3.92;;;27.00;98.10;;;;;;6183116;28;89595;-64
2022/07/23 18:00:16;;;;;;;3.80;3.50;;;27.00;98.10;;;;;;6202804;28;88377;-64
2022/07/23 18:03:18;;;;;;;4.32;4.03;;;27.00;98.00;;;;;;6193988;28;89023;-64
2022/07/23 18:06:20;;;;;;;4.40;4.10;;;27.00;98.10;;;;;;6199915;28;89033;-64
2022/07/23 18:09:24;;;;;;;4.30;3.90;;;27.00;98.10;;;;;;6206179;28;88436;-64
2022/07/23 18:12:26;;;;;;;4.30;4.00;;;27.00;98.10;;;;;;6206195;28;89056;-64
2022/07/23 18:15:28;;;;;;;4.30;4.00;;;27.00;98.20;;;;;;6195685;28;88172;-64
2022/07/23 18:18:30;;;;;;;4.20;3.90;;;27.00;98.20;;;;;;6209774;28;90507;-64
2022/07/23 18:21:33;;;;;;;4.60;4.20;;;27.10;98.20;;;;;;6202540;28;88435;-64
2022/07/23 18:24:36;;;;;;;4.20;3.90;;;27.10;98.10;;;;;;6205312;28;89165;-64
2022/07/23 18:27:39;;;;;;;4.18;3.88;;;27.10;98.20;;;;;;6196915;28;88224;-64
2022/07/23 18:30:41;;;;;;;4.60;4.20;;;27.00;98.10;;;;;;6206183;28;88357;-64
2022/07/23 18:33:43;;;;;;;4.68;4.32;;;27.10;98.20;;;;;;6198866;28;89178;-64
2022/07/23 18:36:45;;;;;;;4.57;4.28;;;27.00;98.10;;;;;;6199459;28;88993;-64
2022/07/23 18:39:49;;;;;;;4.40;4.10;;;27.00;98.10;;;;;;6199566;28;87257;-64
2022/07/23 18:42:55;;;;;;;4.43;4.03;;;27.10;98.20;;;;;;6207338;28;89056;-64
2022/07/23 18:46:01;;;;;;;4.75;4.35;;;27.10;98.20;;;;;;6206180;28;88147;-64
2022/07/23 18:49:04;;;;;;;4.90;4.50;;;27.00;98.10;;;;;;6196466;28;89938;-64
2022/07/23 18:52:06;;;;;;;4.40;4.00;;;27.00;98.10;;;;;;6200533;28;89332;-64
2022/07/23 18:55:10;;;;;;;4.70;4.30;;;27.00;98.10;;;;;;6200604;28;89200;-64
2022/07/23 18:58:12;;;;;;;4.57;4.22;;;27.10;98.20;;;;;;6197114;28;88077;-64
2022/07/23 19:01:14;;;;;;;4.38;4.07;;;27.00;98.10;;;;;;6203248;28;89010;-64
2022/07/23 19:04:16;;;;;;;4.40;4.10;;;27.10;98.10;;;;;;6195815;28;89068;-64
2022/07/23 19:07:18;;;;;;;4.70;4.40;;;27.00;98.10;;;;;;6203742;28;89019;-64
2022/07/23 19:10:22;;;;;;;4.32;4.03;;;27.10;98.10;;;;;;6201888;28;88279;-64
2022/07/23 19:13:25;;;;;;;4.63;4.32;;;27.00;98.10;;;;;;6205207;28;87984;-64
2022/07/23 19:16:27;;;;;;;4.70;4.30;;;27.10;98.10;;;;;;6209324;28;89465;-64
2022/07/23 19:19:29;;;;;;;4.30;4.00;;;27.00;98.00;;;;;;6195988;28;89965;-64
2022/07/23 19:22:31;;;;;;;4.78;4.38;;;27.00;98.00;;;;;;6204859;28;89191;-64
2022/07/23 19:25:34;;;;;;;4.80;4.40;;;27.10;98.10;;;;;;6185016;28;89423;-64
2022/07/23 19:28:36;;;;;;;4.30;4.00;;;27.00;98.00;;;;;;6209974;28;87937;-64
2022/07/23 19:31:38;;;;;;;4.03;3.72;;;27.00;98.00;;;;;;6196846;28;89046;-64
2022/07/23 19:34:41;;;;;;;4.63;4.30;;;27.00;98.00;;;;;;6208721;28;89067;-64
2022/07/23 19:37:43;;;;;;;4.50;4.20;;;27.10;98.50;;;;;;6209188;28;89462;-64
2022/07/23 19:40:47;;;;;;;4.60;4.30;;;27.00;98.00;;;;;;6208409;28;88312;-64
2022/07/23 19:43:49;;;;;;;4.90;4.50;;;27.10;98.10;;;;;;6206471;28;89497;-64
2022/07/23 19:46:51;;;;;;;4.85;4.45;;;27.10;98.10;;;;;;6196511;28;89050;-64
2022/07/23 19:49:53;;;;;;;4.78;4.43;;;27.00;98.10;;;;;;6196721;28;90001;-64
2022/07/23 19:52:56;;;;;;;5.00;4.50;;;27.00;98.10;;;;;;6207409;28;89200;-64
2022/07/23 19:55:59;;;;;;;4.63;4.32;;;27.00;98.10;;;;;;6198118;28;88091;-64
2022/07/23 19:59:01;;;;;;;4.38;4.07;;;27.00;98.10;;;;;;6206782;28;89083;-64
2022/07/23 20:02:03;;;;;;;4.50;4.10;;;27.00;98.00;;;;;;6197805;28;89013;-64
2022/07/23 20:05:06;;;;;;;4.60;4.30;;;27.00;98.00;;;;;;6205593;28;89113;-64
2022/07/23 20:08:08;;;;;;;4.50;4.20;;;27.00;98.00;;;;;;6194530;28;89433;-64
2022/07/23 20:11:12;;;;;;;4.50;4.10;;;27.10;98.10;;;;;;6208222;28;88412;-64
2022/07/23 20:14:13;;;;;;;4.32;4.03;;;27.10;98.10;;;;;;6207890;28;89102;-64
2022/07/23 20:17:15;;;;;;;4.35;4.05;;;27.00;98.00;;;;;;6195420;28;89110;-64
2022/07/23 20:20:17;;;;;;;4.35;4.05;;;27.00;98.00;;;;;;6207882;28;89952;-65
2022/07/23 20:23:19;;;;;;;4.78;4.38;;;27.10;98.10;;;;;;6208511;28;87979;-64
2022/07/23 20:26:23;;;;;;;4.50;4.20;;;27.10;98.10;;;;;;6185561;28;89444;-64
2022/07/23 20:29:25;;;;;;;4.50;4.20;;;27.00;98.00;;;;;;6196966;28;89210;-63
2022/07/23 20:32:27;;;;;;;4.30;3.97;;;27.00;98.00;;;;;;6184128;28;89520;-64
2022/07/23 20:35:29;;;;;;;4.32;3.92;;;27.10;98.10;;;;;;6196143;28;89375;-64
2022/07/23 20:38:31;;;;;;;4.50;4.20;;;27.10;98.10;;;;;;6197798;28;89098;-64
2022/07/23 20:41:35;;;;;;;4.57;4.28;;;27.10;98.10;;;;;;6208844;28;88385;-64
2022/07/23 20:44:37;;;;;;;4.88;4.50;;;27.00;98.00;;;;;;6196872;28;89410;-64
2022/07/23 20:47:39;;;;;;;4.78;4.40;;;27.10;98.10;;;;;;6193319;28;89127;-64
2022/07/23 20:50:43;;;;;;;4.60;4.30;;;27.00;98.00;;;;;;6195460;28;89971;-64
2022/07/23 20:53:46;;;;;;;4.43;4.13;;;27.00;98.00;;;;;;6193481;28;89258;-64
2022/07/23 20:56:50;;;;;;;4.40;4.10;;;27.00;98.00;;;;;;6207228;28;89467;-64
2022/07/23 20:59:52;;;;;;;4.45;4.15;;;27.10;98.00;;;;;;6206921;28;89027;-64
2022/07/23 21:02:53;;;;;;;4.30;4.00;;;27.00;98.00;;;;;;6195445;28;89097;-64
2022/07/23 21:05:56;;;;;;;4.40;4.00;;;27.00;98.00;;;;;;6199404;28;89229;-64
2022/07/23 21:08:57;;;;;;;4.32;4.03;;;27.00;98.00;;;;;;6207457;28;88858;-64
2022/07/23 21:12:01;;;;;;;4.00;3.70;;;27.00;98.00;;;;;;6195173;28;88628;-64
2022/07/23 21:15:04;;;;;;;4.15;3.85;;;27.10;98.00;;;;;;6193040;28;89231;-64
2022/07/23 21:18:06;;;;;;;4.30;4.00;;;27.10;98.10;;;;;;6206287;28;89138;-64
2022/07/23 21:21:09;;;;;;;4.00;3.70;;;27.10;98.10;;;;;;6200191;28;89948;-64
2022/07/23 21:24:10;;;;;;;4.40;4.10;;;27.10;98.00;;;;;;6196089;28;89076;-64
2022/07/23 21:27:15;;;;;;;4.68;4.28;;;27.10;98.00;;;;;;6197195;28;89067;-64
2022/07/23 21:30:17;;;;;;;4.63;4.22;;;27.00;98.00;;;;;;6193905;28;89308;-64
2022/07/23 21:33:19;;;;;;;4.47;4.18;;;27.10;98.00;;;;;;6183392;28;89260;-64
2022/07/23 21:36:21;;;;;;;4.38;4.07;;;27.10;98.00;;;;;;6193156;28;89337;-64
2022/07/23 21:39:23;;;;;;;4.10;3.80;;;27.00;97.90;;;;;;6207127;28;89107;-64
2022/07/23 21:42:26;;;;;;;4.30;4.00;;;27.10;98.00;;;;;;6192571;28;88417;-64
2022/07/23 21:45:28;;;;;;;4.30;4.00;;;27.10;98.40;;;;;;6195307;28;89075;-64
2022/07/23 21:48:30;;;;;;;4.47;4.15;;;27.00;97.90;;;;;;6204378;28;89131;-64
2022/07/23 21:51:32;;;;;;;4.20;3.90;;;27.00;97.90;;;;;;6194553;28;90086;-64
2022/07/23 21:54:36;;;;;;;4.15;3.85;;;27.00;98.00;;;;;;6205689;28;88009;-64
2022/07/23 21:57:39;;;;;;;4.35;4.05;;;27.00;98.00;;;;;;6182487;28;87999;-64
2022/07/23 22:00:43;;;;;;;4.28;3.97;;;27.00;98.00;;;;;;6205738;28;89070;-64
2022/07/23 22:03:45;;;;;;;4.30;4.00;;;27.00;98.00;;;;;;6204592;28;88970;-64
2022/07/23 22:06:47;;;;;;;4.28;3.97;;;27.10;98.00;;;;;;6192711;28;89007;-64
2022/07/23 22:09:49;;;;;;;4.10;3.80;;;27.10;98.00;;;;;;6193646;28;87957;-64
2022/07/23 22:12:52;;;;;;;4.20;3.90;;;27.00;98.00;;;;;;6205267;28;88306;-64
2022/07/23 22:15:54;;;;;;;4.30;4.00;;;27.10;98.00;;;;;;6183645;28;89440;-64
2022/07/23 22:18:56;;;;;;;4.30;4.00;;;27.10;98.00;;;;;;6189532;28;89033;-64
2022/07/23 22:21:58;;;;;;;4.30;4.00;;;27.00;98.00;;;;;;6182440;28;89945;-64
2022/07/23 22:25:00;;;;;;;4.40;4.10;;;27.00;98.00;;;;;;6193513;28;89053;-64
2022/07/23 22:28:04;;;;;;;4.22;3.92;;;27.10;98.00;;;;;;6200485;28;87614;-64
2022/07/23 22:31:06;;;;;;;4.45;4.15;;;27.00;97.90;;;;;;6205488;28;89542;-64
2022/07/23 22:34:08;;;;;;;4.30;4.00;;;27.00;97.90;;;;;;6195418;28;89302;-64
2022/07/23 22:37:10;;;;;;;4.28;3.97;;;27.00;97.90;;;;;;6200288;28;89144;-64
2022/07/23 22:40:14;;;;;;;4.03;3.72;;;27.10;98.00;;;;;;6188397;28;87636;-64
2022/07/23 22:43:17;;;;;;;3.88;3.58;;;27.00;98.00;;;;;;6182116;28;88344;-64
2022/07/23 22:46:19;;;;;;;3.75;3.53;;;27.10;98.00;;;;;;6203304;28;88055;-64
2022/07/23 22:49:21;;;;;;;4.30;4.00;;;27.00;98.00;;;;;;6192435;28;89013;-64
2022/07/23 22:52:23;;;;;;;4.05;3.75;;;27.00;98.00;;;;;;6204295;28;90060;-64
2022/07/23 22:55:25;;;;;;;4.30;4.00;;;27.10;98.00;;;;;;6192504;28;89131;-64
2022/07/23 22:58:29;;;;;;;4.07;3.78;;;27.00;98.00;;;;;;6188908;28;89370;-64
2022/07/23 23:01:31;;;;;;;4.35;3.95;;;27.00;98.00;;;;;;6196758;28;88985;-64
2022/07/23 23:04:33;;;;;;;4.25;3.95;;;27.00;98.00;;;;;;6207895;28;89503;-64
2022/07/23 23:07:35;;;;;;;3.92;3.63;;;27.00;98.00;;;;;;6198929;28;89059;-64
2022/07/23 23:10:37;;;;;;;4.18;3.88;;;27.00;98.00;;;;;;6196084;28;89128;-64
2022/07/23 23:13:41;;;;;;;4.45;4.15;;;27.10;98.00;;;;;;6190060;28;88645;-64
2022/07/23 23:16:43;;;;;;;4.22;3.92;;;27.10;98.00;;;;;;6199407;28;89657;-64
2022/07/23 23:19:44;;;;;;;4.10;3.80;;;27.00;97.90;;;;;;6208859;28;89407;-64
2022/07/23 23:22:46;;;;;;;4.10;3.80;;;27.10;98.00;;;;;;6204045;28;89945;-64
2022/07/23 23:25:49;;;;;;;4.10;3.80;;;27.00;98.00;;;;;;6187629;28;89069;-64
2022/07/23 23:28:52;;;;;;;4.13;3.83;;;27.00;98.00;;;;;;6195099;28;89194;-64
2022/07/23 23:31:56;;;;;;;4.00;3.70;;;27.10;98.00;;;;;;6185906;28;89060;-64
2022/07/23 23:34:58;;;;;;;3.97;3.67;;;27.10;98.00;;;;;;6185169;28;89214;-64
2022/07/23 23:38:00;;;;;;;4.07;3.78;;;27.10;98.00;;;;;;6207435;28;89062;-64
2022/07/23 23:41:02;;;;;;;3.95;3.65;;;27.00;98.00;;;;;;6208567;28;89064;-64
2022/07/23 23:44:05;;;;;;;4.00;3.70;;;27.00;98.00;;;;;;6201972;28;88365;-64
2022/07/23 23:47:07;;;;;;;4.25;3.85;;;27.00;98.00;;;;;;6197540;28;87818;-64
2022/07/23 23:50:10;;;;;;;4.00;3.70;;;27.00;98.00;;;;;;6200978;28;89144;-64
2022/07/23 23:53:12;;;;;;;4.50;4.20;;;27.00;98.00;;;;;;6195002;28;88936;-64
2022/07/23 23:56:14;;;;;;;4.65;4.28;;;27.10;98.00;;;;;;6195574;28;89139;-64
2022/07/23 23:59:17;;;;;;;4.10;3.80;;;27.00;98.00;;;;;;6209393;28;89025;-64
